Time;durP1;ratioP1;P1;durP2;ratioP2;P2;SDS_P1;SDS_P2;PMS_P1;PMS_P2;Temp;Humidity;BMP_temperature;BMP_pressure;BME280_temperature;BME280_humidity;BME280_pressure;Samples;Min_cycle;Max_cycle;Signal;HPM_P1;HPM_P2
2022/11/05 00:10:23;;;;;;;8.63;7.05;;;;;;;;;;5043368;28;20247;-72
2022/11/05 00:18:17;;;;;;;8.50;6.38;;;;;;;;;;5042704;28;20496;-72
2022/11/05 00:20:43;;;;;;;6.60;6.00;;;;;;;;;;5042926;28;20198;-72
2022/11/05 00:25:56;;;;;;;7.78;5.90;;;;;;;;;;5042893;28;20247;-71
2022/11/05 00:28:22;;;;;;;6.88;6.05;;;;;;;;;;5042647;28;20451;-71
2022/11/05 00:30:48;;;;;;;6.93;6.00;;;;;;;;;;5041926;28;20269;-71
2022/11/05 00:33:15;;;;;;;9.73;6.32;;;;;;;;;;5042473;28;20222;-71
2022/11/05 00:35:42;;;;;;;6.65;5.95;;;;;;;;;;5042877;28;21216;-71
2022/11/05 00:38:08;;;;;;;6.93;5.60;;;;;;;;;;5042580;28;20202;-71
2022/11/05 00:40:35;;;;;;;6.35;5.60;;;;;;;;;;5042752;28;20268;-71
2022/11/05 00:45:46;;;;;;;6.97;6.28;;;;;;;;;;5042492;28;20200;-72
2022/11/05 00:50:56;;;;;;;8.10;5.70;;;;;;;;;;5042522;28;20196;-71
2022/11/05 00:53:22;;;;;;;6.20;5.68;;;;;;;;;;5042279;28;20575;-71
2022/11/05 00:55:48;;;;;;;5.53;5.00;;;;;;;;;;5042253;28;20204;-71
2022/11/05 00:58:17;;;;;;;9.18;5.45;;;;;;;;;;5041903;28;20204;-71
2022/11/05 01:00:44;;;;;;;5.78;5.10;;;;;;;;;;5042829;28;20276;-71
2022/11/05 01:03:11;;;;;;;5.85;5.22;;;;;;;;;;5042101;28;20202;-71
2022/11/05 01:05:41;;;;;;;6.22;5.63;;;;;;;;;;5042123;28;20201;-71
2022/11/05 01:08:08;;;;;;;9.00;5.40;;;;;;;;;;5041882;28;20205;-71
2022/11/05 01:10:34;;;;;;;6.18;5.68;;;;;;;;;;5042190;28;20251;-71
2022/11/05 01:13:01;;;;;;;6.75;5.72;;;;;;;;;;5041837;28;20393;-72
2022/11/05 01:15:28;;;;;;;6.40;5.72;;;;;;;;;;5042216;28;20504;-71
2022/11/05 01:17:55;;;;;;;6.97;5.05;;;;;;;;;;5041848;28;20202;-71
2022/11/05 01:20:21;;;;;;;6.35;4.95;;;;;;;;;;5042161;28;20198;-71
2022/11/05 01:22:47;;;;;;;4.75;4.30;;;;;;;;;;5041265;28;20210;-72
2022/11/05 01:25:14;;;;;;;4.93;4.45;;;;;;;;;;5041822;28;20277;-72
2022/11/05 01:27:40;;;;;;;8.38;4.72;;;;;;;;;;5041520;28;20236;-71
2022/11/05 01:30:08;;;;;;;6.20;4.18;;;;;;;;;;5041972;28;20384;-71
2022/11/05 01:32:36;;;;;;;4.60;4.13;;;;;;;;;;5041864;28;20497;-72
2022/11/05 01:35:02;;;;;;;6.75;4.20;;;;;;;;;;5041444;28;20228;-72
2022/11/05 01:37:29;;;;;;;8.27;4.70;;;;;;;;;;5041647;28;20524;-72
2022/11/05 01:39:55;;;;;;;4.15;3.85;;;;;;;;;;5041307;28;20205;-72
2022/11/05 01:42:23;;;;;;;4.00;3.70;;;;;;;;;;5041899;28;20232;-72
2022/11/05 01:44:55;;;;;;;3.83;3.28;;;;;;;;;;5041781;28;20202;-72
2022/11/05 01:47:25;;;;;;;4.13;2.85;;;;;;;;;;5041675;28;20208;-72
2022/11/05 01:49:53;;;;;;;3.50;3.30;;;;;;;;;;5041440;28;20206;-72
2022/11/05 01:52:20;;;;;;;3.30;3.10;;;;;;;;;;5041702;28;20212;-72
2022/11/05 01:54:46;;;;;;;2.90;2.70;;;;;;;;;;5041411;28;20225;-71
2022/11/05 01:57:13;;;;;;;3.95;2.75;;;;;;;;;;5041438;28;20198;-71
2022/11/05 01:59:42;;;;;;;2.72;2.58;;;;;;;;;;5041525;28;20433;-71
2022/11/05 02:02:09;;;;;;;3.33;2.55;;;;;;;;;;5041563;28;20243;-71
2022/11/05 02:04:37;;;;;;;2.97;2.78;;;;;;;;;;5041567;28;20449;-70
2022/11/05 02:07:05;;;;;;;2.20;2.10;;;;;;;;;;5041359;28;20225;-70
2022/11/05 02:09:34;;;;;;;3.22;2.38;;;;;;;;;;5041385;28;20201;-71
2022/11/05 02:12:01;;;;;;;2.33;2.15;;;;;;;;;;5041370;28;20212;-71
2022/11/05 02:14:27;;;;;;;2.30;2.20;;;;;;;;;;5041493;28;20406;-71
2022/11/05 02:16:57;;;;;;;3.00;2.60;;;;;;;;;;5041232;28;20198;-71
2022/11/05 02:19:38;;;;;;;2.58;2.40;;;;;;;;;;5041116;28;20212;-71
2022/11/05 02:22:22;;;;;;;2.55;2.40;;;;;;;;;;5039056;28;20197;-71
2022/11/05 02:25:04;;;;;;;2.53;2.42;;;;;;;;;;5041471;28;20193;-71
2022/11/05 02:27:43;;;;;;;2.75;2.55;;;;;;;;;;5032403;28;20221;-71
2022/11/05 02:30:23;;;;;;;2.70;2.50;;;;;;;;;;5041263;28;20198;-71
2022/11/05 02:32:58;;;;;;;2.78;2.65;;;;;;;;;;5041285;28;20198;-71
2022/11/05 02:35:29;;;;;;;3.75;2.95;;;;;;;;;;5043883;28;20205;-72
2022/11/05 02:38:01;;;;;;;2.47;2.38;;;;;;;;;;5044508;28;20198;-71
2022/11/05 02:40:30;;;;;;;2.50;2.40;;;;;;;;;;5044920;28;20204;-71
2022/11/05 02:43:02;;;;;;;2.58;2.47;;;;;;;;;;5044647;28;20202;-71
2022/11/05 02:45:34;;;;;;;4.88;2.40;;;;;;;;;;5044885;28;20268;-71
2022/11/05 02:48:04;;;;;;;2.63;2.53;;;;;;;;;;5044492;28;20197;-71
2022/11/05 02:50:33;;;;;;;2.60;2.38;;;;;;;;;;5045005;28;20228;-71
2022/11/05 02:53:01;;;;;;;2.17;2.08;;;;;;;;;;5044673;28;20201;-71
2022/11/05 02:55:31;;;;;;;2.03;1.92;;;;;;;;;;5044651;28;20221;-71
2022/11/05 02:57:58;;;;;;;2.28;2.03;;;;;;;;;;5044434;28;20208;-71
2022/11/05 03:00:48;;;;;;;1.90;1.80;;;;;;;;;;5044419;28;20204;-71
2022/11/05 03:03:19;;;;;;;2.15;2.05;;;;;;;;;;5033943;28;20205;-71
2022/11/05 03:05:57;;;;;;;1.80;1.70;;;;;;;;;;5044858;28;20197;-71
2022/11/05 03:08:32;;;;;;;1.60;1.60;;;;;;;;;;5044140;28;20489;-71
2022/11/05 03:11:01;;;;;;;1.73;1.65;;;;;;;;;;5044251;28;20201;-71
2022/11/05 03:13:30;;;;;;;3.13;2.60;;;;;;;;;;5044404;28;20509;-71
2022/11/05 03:15:58;;;;;;;3.60;3.22;;;;;;;;;;5044566;28;20206;-71
2022/11/05 03:18:35;;;;;;;2.10;2.00;;;;;;;;;;5043954;28;20236;-71
2022/11/05 03:21:04;;;;;;;5.38;2.22;;;;;;;;;;5044127;28;20219;-71
2022/11/05 03:23:33;;;;;;;2.10;1.90;;;;;;;;;;5043925;28;20201;-71
2022/11/05 03:26:04;;;;;;;5.25;3.05;;;;;;;;;;5044090;28;20201;-71
2022/11/05 03:28:32;;;;;;;2.53;2.33;;;;;;;;;;5043982;28;20221;-71
2022/11/05 03:30:59;;;;;;;2.50;2.30;;;;;;;;;;5044229;28;20284;-71
2022/11/05 03:33:27;;;;;;;2.58;2.40;;;;;;;;;;5043851;28;20445;-71
2022/11/05 03:35:56;;;;;;;2.45;2.35;;;;;;;;;;5043796;28;20210;-71
2022/11/05 03:38:26;;;;;;;3.33;3.13;;;;;;;;;;5043878;28;20261;-71
2022/11/05 03:40:54;;;;;;;2.47;2.20;;;;;;;;;;5043859;28;20197;-71
2022/11/05 03:43:22;;;;;;;2.42;2.25;;;;;;;;;;5043917;28;20197;-71
2022/11/05 03:45:53;;;;;;;4.30;2.60;;;;;;;;;;5043238;28;20203;-71
2022/11/05 03:48:20;;;;;;;2.65;2.45;;;;;;;;;;5043440;28;20392;-71
2022/11/05 03:50:51;;;;;;;4.60;2.40;;;;;;;;;;5043509;28;20210;-71
2022/11/05 03:53:22;;;;;;;2.53;2.13;;;;;;;;;;5043670;28;20409;-71
2022/11/05 03:55:51;;;;;;;2.08;2.05;;;;;;;;;;5043635;28;20198;-71
2022/11/05 03:58:19;;;;;;;3.20;2.65;;;;;;;;;;5043237;28;20205;-71
2022/11/05 04:00:45;;;;;;;3.70;2.30;;;;;;;;;;5043322;28;20197;-71
2022/11/05 04:03:11;;;;;;;2.35;2.15;;;;;;;;;;5043352;28;20504;-71
2022/11/05 04:05:38;;;;;;;3.40;1.92;;;;;;;;;;5043517;28;20202;-71
2022/11/05 04:13:30;;;;;;;2.50;2.30;;;;;;;;;;5010000;28;20260;-71
2022/11/05 04:18:41;;;;;;;2.30;2.20;;;;;;;;;;5042696;28;20511;-71
2022/11/05 04:24:09;;;;;;;2.38;2.28;;;;;;;;;;5042892;28;20192;-71
2022/11/05 04:26:37;;;;;;;1.80;1.80;;;;;;;;;;5043189;28;20515;-71
2022/11/05 04:31:47;;;;;;;1.73;1.73;;;;;;;;;;5042843;28;20193;-71
2022/11/05 04:34:15;;;;;;;2.53;2.17;;;;;;;;;;5042652;28;20235;-71
2022/11/05 04:36:41;;;;;;;1.80;1.80;;;;;;;;;;5042596;28;20225;-71
2022/11/05 04:39:07;;;;;;;2.60;1.92;;;;;;;;;;5042532;28;20198;-71
2022/11/05 04:41:34;;;;;;;2.92;2.10;;;;;;;;;;5042857;28;20202;-71
2022/11/05 04:44:01;;;;;;;2.45;2.35;;;;;;;;;;5042476;28;20209;-71
2022/11/05 04:46:27;;;;;;;2.97;2.67;;;;;;;;;;5042917;28;20489;-71
2022/11/05 04:48:54;;;;;;;4.53;2.92;;;;;;;;;;5042110;28;20201;-71
2022/11/05 04:51:20;;;;;;;3.55;2.30;;;;;;;;;;5042136;28;20280;-71
2022/11/05 04:53:46;;;;;;;2.55;2.22;;;;;;;;;;5042385;28;20505;-71
2022/11/05 04:56:14;;;;;;;2.30;2.20;;;;;;;;;;5042386;28;20220;-71
2022/11/05 04:58:41;;;;;;;1.80;1.70;;;;;;;;;;5041220;28;20202;-71
2022/11/05 05:01:12;;;;;;;2.10;1.90;;;;;;;;;;5042281;28;20204;-71
2022/11/05 05:03:38;;;;;;;4.15;1.70;;;;;;;;;;5042007;28;20268;-71
2022/11/05 05:06:05;;;;;;;2.47;1.60;;;;;;;;;;5042235;28;20197;-71
2022/11/05 05:08:31;;;;;;;3.17;1.80;;;;;;;;;;5041954;28;20210;-71
2022/11/05 05:11:00;;;;;;;2.05;1.98;;;;;;;;;;5042030;28;20248;-71
2022/11/05 05:13:26;;;;;;;1.95;1.70;;;;;;;;;;5042041;28;20373;-71
2022/11/05 05:15:52;;;;;;;1.65;1.55;;;;;;;;;;5041857;28;20221;-71
2022/11/05 05:18:20;;;;;;;1.88;1.77;;;;;;;;;;5041536;28;20223;-71
2022/11/05 05:23:30;;;;;;;2.97;1.70;;;;;;;;;;5041902;28;20200;-71
2022/11/05 05:25:58;;;;;;;1.45;1.45;;;;;;;;;;5041927;28;20194;-71
2022/11/05 05:28:24;;;;;;;2.35;1.90;;;;;;;;;;5041443;28;20218;-71
2022/11/05 05:30:51;;;;;;;3.13;2.20;;;;;;;;;;5041712;28;20210;-71
2022/11/05 05:33:17;;;;;;;1.58;1.58;;;;;;;;;;5042179;28;20201;-71
2022/11/05 05:35:44;;;;;;;2.00;1.90;;;;;;;;;;5041281;28;20547;-71
2022/11/05 05:38:11;;;;;;;2.13;1.92;;;;;;;;;;5041491;28;20224;-71
2022/11/05 05:40:37;;;;;;;1.30;1.30;;;;;;;;;;5041620;28;20211;-71
2022/11/05 05:43:03;;;;;;;2.83;1.08;;;;;;;;;;5041866;28;20198;-71
2022/11/05 05:45:29;;;;;;;1.40;1.30;;;;;;;;;;5041777;28;20221;-71
2022/11/05 05:47:56;;;;;;;1.35;1.35;;;;;;;;;;5041473;28;20208;-71
2022/11/05 05:50:22;;;;;;;2.15;1.83;;;;;;;;;;5041456;28;20206;-71
2022/11/05 05:52:50;;;;;;;5.38;3.67;;;;;;;;;;5041914;28;20373;-71
2022/11/05 05:55:16;;;;;;;2.55;2.35;;;;;;;;;;5041377;28;20241;-73
2022/11/05 05:57:42;;;;;;;2.30;2.20;;;;;;;;;;5041205;28;20505;-73
2022/11/05 06:00:09;;;;;;;2.80;2.53;;;;;;;;;;5041668;28;20198;-73
2022/11/05 06:02:35;;;;;;;2.50;2.20;;;;;;;;;;5041727;28;20523;-73
2022/11/05 06:05:02;;;;;;;2.15;2.05;;;;;;;;;;5041451;28;20196;-73
2022/11/05 06:07:28;;;;;;;1.70;1.60;;;;;;;;;;5041446;28;20550;-73
2022/11/05 06:09:56;;;;;;;1.60;1.50;;;;;;;;;;5043230;28;20198;-73
2022/11/05 06:12:22;;;;;;;5.00;2.78;;;;;;;;;;5045182;28;20204;-73
2022/11/05 06:14:48;;;;;;;15.35;13.23;;;;;;;;;;5045403;28;20541;-73
2022/11/05 06:17:15;;;;;;;2.67;2.58;;;;;;;;;;5045312;28;20221;-73
2022/11/05 06:19:41;;;;;;;2.55;2.40;;;;;;;;;;5047134;28;20206;-73
2022/11/05 06:22:07;;;;;;;3.42;2.10;;;;;;;;;;5065242;28;20388;-73
2022/11/05 06:24:33;;;;;;;2.35;2.25;;;;;;;;;;5065164;28;20209;-73
2022/11/05 06:27:01;;;;;;;2.05;1.95;;;;;;;;;;5064998;28;20200;-72
2022/11/05 06:29:27;;;;;;;2.38;2.22;;;;;;;;;;5065082;28;20271;-72
2022/11/05 06:31:54;;;;;;;4.55;1.85;;;;;;;;;;5064968;28;20205;-73
2022/11/05 06:34:20;;;;;;;2.25;2.05;;;;;;;;;;5064897;28;20215;-73
2022/11/05 06:36:46;;;;;;;2.88;2.70;;;;;;;;;;5064791;28;20197;-73
2022/11/05 06:39:13;;;;;;;2.72;2.53;;;;;;;;;;5064566;28;20207;-73
2022/11/05 06:41:39;;;;;;;2.80;2.70;;;;;;;;;;5064622;28;20405;-73
2022/11/05 06:44:06;;;;;;;4.35;4.05;;;;;;;;;;5064660;28;20197;-73
2022/11/05 06:46:33;;;;;;;4.32;4.03;;;;;;;;;;5064782;28;20211;-73
2022/11/05 06:48:59;;;;;;;4.80;4.32;;;;;;;;;;5064250;28;20215;-73
2022/11/05 06:51:26;;;;;;;4.55;4.15;;;;;;;;;;5064463;28;20197;-73
2022/11/05 06:53:52;;;;;;;5.80;4.85;;;;;;;;;;5064448;28;20268;-73
2022/11/05 06:56:18;;;;;;;7.90;5.63;;;;;;;;;;5064262;28;20554;-73
2022/11/05 06:58:44;;;;;;;6.68;6.07;;;;;;;;;;5064158;28;20205;-73
2022/11/05 07:01:12;;;;;;;12.82;8.40;;;;;;;;;;5064505;28;20404;-73
2022/11/05 07:03:38;;;;;;;15.77;8.73;;;;;;;;;;5064365;28;20231;-73
2022/11/05 07:06:06;;;;;;;13.25;10.35;;;;;;;;;;5064307;28;20407;-73
2022/11/05 07:08:32;;;;;;;14.90;10.38;;;;;;;;;;5064030;28;20208;-71
2022/11/05 07:10:59;;;;;;;13.27;10.00;;;;;;;;;;5064423;28;20217;-71
2022/11/05 07:13:25;;;;;;;15.40;10.95;;;;;;;;;;5064306;28;20205;-71
2022/11/05 07:15:51;;;;;;;14.40;9.80;;;;;;;;;;5064365;28;20212;-71
2022/11/05 07:18:19;;;;;;;12.13;10.60;;;;;;;;;;5063685;28;20212;-71
2022/11/05 07:20:45;;;;;;;14.93;11.57;;;;;;;;;;5063079;28;20250;-72
2022/11/05 07:23:12;;;;;;;13.98;10.68;;;;;;;;;;5063905;28;20526;-72
2022/11/05 07:25:39;;;;;;;14.07;12.50;;;;;;;;;;5064091;28;20396;-72
2022/11/05 07:28:06;;;;;;;14.70;12.60;;;;;;;;;;5063629;28;20443;-72
2022/11/05 07:30:33;;;;;;;19.40;15.23;;;;;;;;;;5063825;28;20197;-72
2022/11/05 07:32:59;;;;;;;17.45;15.27;;;;;;;;;;5063779;28;20209;-71
2022/11/05 07:35:27;;;;;;;20.98;15.27;;;;;;;;;;5063712;28;20220;-71
2022/11/05 07:37:54;;;;;;;20.83;17.05;;;;;;;;;;5063292;28;20205;-71
2022/11/05 07:40:21;;;;;;;19.15;16.00;;;;;;;;;;5063809;28;20204;-71
2022/11/05 07:42:48;;;;;;;22.50;16.33;;;;;;;;;;5063779;28;20288;-71
2022/11/05 07:45:14;;;;;;;19.67;16.33;;;;;;;;;;5063609;28;20193;-71
2022/11/05 07:47:45;;;;;;;20.42;16.70;;;;;;;;;;5063279;28;20371;-71
2022/11/05 07:50:11;;;;;;;22.05;16.20;;;;;;;;;;5063530;28;20211;-71
2022/11/05 07:52:39;;;;;;;18.40;15.90;;;;;;;;;;5063429;28;20205;-71
2022/11/05 07:55:06;;;;;;;19.42;16.08;;;;;;;;;;5063428;28;20225;-71
2022/11/05 07:57:32;;;;;;;23.67;17.00;;;;;;;;;;5063241;28;20197;-71
2022/11/05 07:59:58;;;;;;;18.63;16.05;;;;;;;;;;5063230;28;20204;-72
2022/11/05 08:02:25;;;;;;;21.77;17.20;;;;;;;;;;5060111;28;20190;-71
2022/11/05 08:04:51;;;;;;;22.88;16.88;;;;;;;;;;5051451;28;20205;-71
2022/11/05 08:07:17;;;;;;;20.70;16.45;;;;;;;;;;5043240;28;20269;-71
2022/11/05 08:09:45;;;;;;;21.92;17.00;;;;;;;;;;5043166;28;20500;-71
2022/11/05 08:12:11;;;;;;;23.13;17.42;;;;;;;;;;5043159;28;20197;-71
2022/11/05 08:14:37;;;;;;;25.95;17.50;;;;;;;;;;5042956;28;20204;-71
2022/11/05 08:17:04;;;;;;;19.50;16.25;;;;;;;;;;5043074;28;20223;-61
2022/11/05 08:19:30;;;;;;;20.15;15.52;;;;;;;;;;5048995;28;20228;-61
2022/11/05 08:21:56;;;;;;;21.40;16.15;;;;;;;;;;5063015;28;20212;-61
2022/11/05 08:24:23;;;;;;;23.30;16.40;;;;;;;;;;5063197;28;20201;-60
2022/11/05 08:26:50;;;;;;;19.52;15.57;;;;;;;;;;5062738;28;20205;-61
2022/11/05 08:29:16;;;;;;;18.92;14.90;;;;;;;;;;5062588;28;20217;-60
2022/11/05 08:31:43;;;;;;;18.23;15.15;;;;;;;;;;5062657;28;20203;-61
2022/11/05 08:34:09;;;;;;;21.05;16.33;;;;;;;;;;5062618;28;20431;-61
2022/11/05 08:36:35;;;;;;;20.95;15.75;;;;;;;;;;5062714;28;20223;-61
2022/11/05 08:39:02;;;;;;;21.65;17.90;;;;;;;;;;5062504;28;20496;-61
2022/11/05 08:41:28;;;;;;;21.70;17.50;;;;;;;;;;5062728;28;20204;-61
2022/11/05 08:43:56;;;;;;;26.08;18.20;;;;;;;;;;5061225;28;20197;-61
2022/11/05 08:46:22;;;;;;;22.98;16.75;;;;;;;;;;5055290;28;20203;-61
2022/11/05 08:48:48;;;;;;;24.02;17.33;;;;;;;;;;5062090;28;20211;-61
2022/11/05 08:51:15;;;;;;;20.80;15.27;;;;;;;;;;5062248;28;20197;-59
2022/11/05 08:53:41;;;;;;;14.90;12.90;;;;;;;;;;5062336;28;20361;-59
2022/11/05 08:56:08;;;;;;;12.73;11.43;;;;;;;;;;5062463;28;20220;-60
2022/11/05 08:58:34;;;;;;;12.38;11.10;;;;;;;;;;5062212;28;20394;-60
2022/11/05 09:01:03;;;;;;;14.40;11.00;;;;;;;;;;5062001;28;20209;-60
2022/11/05 09:03:30;;;;;;;12.60;10.02;;;;;;;;;;5062339;28;20197;-61
2022/11/05 09:05:56;;;;;;;8.40;7.57;;;;;;;;;;5062290;28;20290;-61
2022/11/05 09:08:22;;;;;;;7.07;6.40;;;;;;;;;;5062065;28;20518;-61
2022/11/05 09:10:49;;;;;;;6.90;6.35;;;;;;;;;;5062201;28;20197;-60
2022/11/05 09:13:16;;;;;;;6.38;5.60;;;;;;;;;;5062173;28;20200;-60
2022/11/05 09:15:42;;;;;;;5.63;5.22;;;;;;;;;;5062392;28;20227;-60
2022/11/05 09:18:11;;;;;;;7.03;4.85;;;;;;;;;;5061839;28;20212;-60
2022/11/05 09:20:38;;;;;;;5.32;4.82;;;;;;;;;;5062136;28;20205;-61
2022/11/05 09:23:05;;;;;;;6.43;4.43;;;;;;;;;;5062147;28;20197;-61
2022/11/05 09:25:31;;;;;;;5.25;4.75;;;;;;;;;;5062056;28;20212;-61
2022/11/05 09:28:05;;;;;;;5.20;4.80;;;;;;;;;;5061721;28;20223;-61
2022/11/05 09:30:31;;;;;;;4.47;4.18;;;;;;;;;;5062020;28;20205;-61
2022/11/05 09:32:58;;;;;;;4.93;4.63;;;;;;;;;;5062154;28;20197;-61
2022/11/05 09:35:25;;;;;;;5.25;4.78;;;;;;;;;;5061604;28;20224;-61
2022/11/05 09:37:51;;;;;;;4.85;4.43;;;;;;;;;;5061829;28;20205;-61
2022/11/05 09:40:18;;;;;;;4.88;4.47;;;;;;;;;;5062349;28;20189;-61
2022/11/05 09:42:45;;;;;;;5.30;4.90;;;;;;;;;;5061967;28;20382;-61
2022/11/05 09:45:15;;;;;;;5.57;4.70;;;;;;;;;;5061410;28;20276;-61
2022/11/05 09:47:44;;;;;;;5.55;5.07;;;;;;;;;;5061836;28;20228;-61
2022/11/05 09:50:13;;;;;;;5.03;4.68;;;;;;;;;;5061855;28;20189;-61
2022/11/05 09:52:41;;;;;;;5.45;5.03;;;;;;;;;;5061670;28;20204;-60
2022/11/05 09:55:16;;;;;;;5.80;5.30;;;;;;;;;;5061617;28;20197;-60
2022/11/05 09:57:45;;;;;;;5.03;4.63;;;;;;;;;;5061697;28;20211;-60
2022/11/05 10:00:15;;;;;;;5.15;4.75;;;;;;;;;;5061624;28;20204;-61
2022/11/05 10:02:43;;;;;;;6.28;5.78;;;;;;;;;;5061767;28;20193;-60
2022/11/05 10:05:11;;;;;;;6.55;5.95;;;;;;;;;;5061945;28;20212;-60
2022/11/05 10:07:41;;;;;;;6.72;6.03;;;;;;;;;;5061323;28;20205;-61
2022/11/05 10:10:25;;;;;;;6.47;5.78;;;;;;;;;;5062008;28;20204;-61
2022/11/05 10:12:53;;;;;;;7.93;7.07;;;;;;;;;;5061568;28;20209;-60
2022/11/05 10:15:21;;;;;;;7.95;7.18;;;;;;;;;;5061566;28;20443;-61
2022/11/05 10:17:49;;;;;;;12.13;7.90;;;;;;;;;;5061179;28;20355;-61
2022/11/05 10:20:19;;;;;;;8.48;7.30;;;;;;;;;;5061351;28;20203;-60
2022/11/05 10:22:45;;;;;;;9.07;8.25;;;;;;;;;;5061306;28;20519;-61
2022/11/05 10:25:17;;;;;;;9.63;8.07;;;;;;;;;;5061329;28;20203;-61
2022/11/05 10:27:46;;;;;;;9.60;8.70;;;;;;;;;;5061182;28;20228;-61
2022/11/05 10:30:13;;;;;;;9.60;8.68;;;;;;;;;;5061749;28;20223;-61
2022/11/05 10:32:40;;;;;;;11.95;9.00;;;;;;;;;;5061270;28;20394;-61
2022/11/05 10:35:08;;;;;;;11.98;9.63;;;;;;;;;;5061543;28;20201;-61
2022/11/05 10:37:36;;;;;;;12.25;9.68;;;;;;;;;;5061249;28;20225;-61
2022/11/05 10:40:02;;;;;;;14.20;10.55;;;;;;;;;;5061459;28;20224;-61
2022/11/05 10:42:44;;;;;;;13.75;10.75;;;;;;;;;;5061195;28;20197;-61
2022/11/05 10:45:15;;;;;;;13.73;10.38;;;;;;;;;;5061258;28;20204;-61
2022/11/05 10:47:47;;;;;;;19.85;12.07;;;;;;;;;;5061271;28;20197;-61
2022/11/05 10:50:16;;;;;;;14.18;11.88;;;;;;;;;;5061232;28;20204;-61
2022/11/05 10:52:48;;;;;;;15.00;11.45;;;;;;;;;;5061173;28;20197;-61
2022/11/05 10:55:16;;;;;;;13.20;11.80;;;;;;;;;;5061038;28;20205;-61
2022/11/05 10:57:46;;;;;;;15.63;11.82;;;;;;;;;;5063782;28;20207;-61
2022/11/05 11:00:20;;;;;;;16.23;11.50;;;;;;;;;;5064681;28;20196;-60
2022/11/05 11:02:49;;;;;;;12.65;10.23;;;;;;;;;;5064437;28;20201;-61
2022/11/05 11:05:19;;;;;;;17.35;11.45;;;;;;;;;;5064587;28;20220;-61
2022/11/05 11:07:51;;;;;;;12.20;10.32;;;;;;;;;;5064338;28;20197;-60
2022/11/05 11:10:19;;;;;;;12.02;10.80;;;;;;;;;;5064352;28;20193;-61
2022/11/05 11:12:48;;;;;;;15.48;10.05;;;;;;;;;;5064513;28;20501;-61
2022/11/05 11:15:24;;;;;;;13.18;10.88;;;;;;;;;;5064158;28;20197;-61
2022/11/05 11:17:51;;;;;;;11.95;9.48;;;;;;;;;;5064043;28;20199;-61
2022/11/05 11:20:23;;;;;;;11.80;10.30;;;;;;;;;;5064385;28;20273;-61
2022/11/05 11:22:59;;;;;;;12.82;10.13;;;;;;;;;;5044263;28;20385;-61
2022/11/05 11:25:25;;;;;;;16.77;11.05;;;;;;;;;;5044349;28;20505;-61
2022/11/05 11:27:53;;;;;;;15.48;11.45;;;;;;;;;;5043920;28;20225;-61
2022/11/05 11:30:20;;;;;;;18.88;12.85;;;;;;;;;;5044155;28;20198;-61
2022/11/05 11:32:47;;;;;;;14.68;11.07;;;;;;;;;;5044039;28;20207;-61
2022/11/05 11:35:19;;;;;;;15.00;10.35;;;;;;;;;;5043909;28;20198;-60
2022/11/05 11:37:45;;;;;;;12.55;10.30;;;;;;;;;;5044991;28;20562;-60
2022/11/05 11:40:14;;;;;;;19.33;10.80;;;;;;;;;;5044862;28;20389;-63
2022/11/05 11:42:44;;;;;;;13.48;9.93;;;;;;;;;;5044217;28;20400;-61
2022/11/05 11:45:17;;;;;;;13.98;10.38;;;;;;;;;;5044324;28;20198;-62
2022/11/05 11:47:44;;;;;;;14.95;10.23;;;;;;;;;;5043998;28;20613;-62
2022/11/05 11:50:32;;;;;;;9.80;8.80;;;;;;;;;;5043947;28;20198;-61
2022/11/05 11:53:15;;;;;;;11.13;7.53;;;;;;;;;;5044412;28;20197;-63
2022/11/05 11:55:55;;;;;;;8.25;7.22;;;;;;;;;;5044091;28;20198;-63
2022/11/05 11:58:22;;;;;;;10.75;8.43;;;;;;;;;;5043888;28;20206;-62
2022/11/05 12:00:53;;;;;;;8.05;7.00;;;;;;;;;;5044670;28;20198;-62
2022/11/05 12:03:24;;;;;;;8.82;7.05;;;;;;;;;;5044514;28;20517;-63
2022/11/05 12:05:53;;;;;;;11.10;8.27;;;;;;;;;;5044949;28;20197;-62
2022/11/05 12:08:34;;;;;;;7.78;7.05;;;;;;;;;;5043818;28;20197;-63
2022/11/05 12:11:04;;;;;;;8.73;7.40;;;;;;;;;;5042089;28;20276;-63
2022/11/05 12:13:50;;;;;;;13.07;8.32;;;;;;;;;;5044359;28;20244;-64
2022/11/05 12:16:22;;;;;;;8.35;7.55;;;;;;;;;;5043368;28;20225;-64
2022/11/05 12:18:53;;;;;;;11.10;8.23;;;;;;;;;;5042850;28;20228;-64
2022/11/05 12:21:24;;;;;;;7.80;7.10;;;;;;;;;;5043366;28;20198;-63
2022/11/05 12:24:08;;;;;;;8.82;7.22;;;;;;;;;;5043174;28;20268;-63
2022/11/05 12:26:40;;;;;;;7.85;7.00;;;;;;;;;;5043102;28;20190;-63
2022/11/05 12:29:14;;;;;;;8.40;7.28;;;;;;;;;;5042844;28;20407;-63
2022/11/05 12:31:45;;;;;;;9.15;7.75;;;;;;;;;;5043254;28;20194;-63
2022/11/05 12:34:20;;;;;;;8.75;7.85;;;;;;;;;;5043507;28;20193;-63
2022/11/05 12:36:55;;;;;;;8.35;7.63;;;;;;;;;;5043129;28;20217;-62
2022/11/05 12:39:28;;;;;;;10.55;8.45;;;;;;;;;;5042689;28;20395;-62
2022/11/05 12:41:59;;;;;;;8.98;7.38;;;;;;;;;;5042718;28;20217;-63
2022/11/05 12:44:35;;;;;;;8.18;7.05;;;;;;;;;;5042846;28;20205;-63
2022/11/05 12:47:08;;;;;;;7.53;6.60;;;;;;;;;;5042875;28;20193;-63
2022/11/05 12:49:39;;;;;;;10.65;6.93;;;;;;;;;;5042720;28;20205;-64
2022/11/05 12:52:16;;;;;;;7.43;6.68;;;;;;;;;;5043071;28;20205;-63
2022/11/05 12:55:00;;;;;;;8.63;6.40;;;;;;;;;;5043330;28;20220;-63
2022/11/05 12:57:28;;;;;;;7.93;6.60;;;;;;;;;;5042702;28;20221;-64
2022/11/05 12:59:58;;;;;;;7.10;6.40;;;;;;;;;;5042764;28;20509;-63
2022/11/05 13:02:29;;;;;;;7.32;6.63;;;;;;;;;;5042538;28;20198;-63
2022/11/05 13:04:57;;;;;;;7.25;6.18;;;;;;;;;;5042509;28;20316;-63
2022/11/05 13:07:27;;;;;;;7.00;6.00;;;;;;;;;;5042803;28;20194;-63
2022/11/05 13:09:55;;;;;;;7.60;6.38;;;;;;;;;;5042364;28;20201;-64
2022/11/05 13:12:22;;;;;;;6.85;6.07;;;;;;;;;;5042625;28;20197;-63
2022/11/05 13:14:53;;;;;;;7.15;6.45;;;;;;;;;;5042336;28;20522;-63
2022/11/05 13:17:20;;;;;;;6.88;6.18;;;;;;;;;;5042167;28;20224;-63
2022/11/05 13:19:51;;;;;;;7.45;6.03;;;;;;;;;;5041550;28;20227;-63
2022/11/05 13:22:21;;;;;;;7.05;6.18;;;;;;;;;;5042542;28;20431;-63
2022/11/05 13:24:49;;;;;;;6.53;6.00;;;;;;;;;;5042257;28;20201;-63
2022/11/05 13:27:28;;;;;;;7.20;6.10;;;;;;;;;;5042367;28;20384;-63
2022/11/05 13:29:56;;;;;;;7.40;6.70;;;;;;;;;;5042032;28;20201;-63
2022/11/05 13:32:27;;;;;;;7.05;6.35;;;;;;;;;;5042462;28;20203;-63
2022/11/05 13:34:56;;;;;;;7.32;6.25;;;;;;;;;;5042533;28;20432;-63
2022/11/05 13:40:09;;;;;;;6.68;6.07;;;;;;;;;;5042136;28;20549;-63
2022/11/05 13:42:47;;;;;;;6.50;5.90;;;;;;;;;;5042350;28;20198;-63
2022/11/05 13:45:29;;;;;;;6.78;6.07;;;;;;;;;;5042844;28;20198;-63
2022/11/05 13:48:09;;;;;;;9.98;6.88;;;;;;;;;;5043035;28;20425;-63
2022/11/05 13:50:51;;;;;;;8.00;7.20;;;;;;;;;;5042765;28;20185;-63
2022/11/05 13:53:50;;;;;;;7.10;6.40;;;;;;;;;;5042591;28;20216;-63
2022/11/05 13:56:20;;;;;;;7.78;6.90;;;;;;;;;;4981649;28;20199;-63
2022/11/05 13:58:55;;;;;;;7.05;6.45;;;;;;;;;;4980977;28;20202;-63
2022/11/05 14:01:28;;;;;;;7.78;7.00;;;;;;;;;;5012488;28;20197;-63
2022/11/05 14:03:55;;;;;;;6.65;6.05;;;;;;;;;;5042072;28;20198;-63
2022/11/05 14:06:27;;;;;;;7.35;6.68;;;;;;;;;;5042114;28;20220;-63
2022/11/05 14:08:56;;;;;;;8.23;7.43;;;;;;;;;;5041528;28;20202;-63
2022/11/05 14:11:25;;;;;;;7.80;7.00;;;;;;;;;;5041793;28;20202;-63
2022/11/05 14:14:00;;;;;;;7.90;6.50;;;;;;;;;;5042153;28;20220;-63
2022/11/05 14:16:28;;;;;;;8.88;8.05;;;;;;;;;;5041694;28;20205;-63
2022/11/05 14:19:14;;;;;;;9.43;8.52;;;;;;;;;;5041481;28;20213;-63
2022/11/05 14:21:49;;;;;;;8.23;6.63;;;;;;;;;;5042032;28;20497;-63
2022/11/05 14:24:25;;;;;;;7.32;6.50;;;;;;;;;;5041834;28;20232;-63
2022/11/05 14:27:07;;;;;;;7.97;5.90;;;;;;;;;;5041891;28;20200;-63
2022/11/05 14:29:37;;;;;;;7.78;6.72;;;;;;;;;;5041100;28;20232;-63
2022/11/05 14:32:05;;;;;;;7.45;6.75;;;;;;;;;;5045446;28;20204;-63
2022/11/05 14:34:47;;;;;;;8.88;7.10;;;;;;;;;;5044940;28;20208;-63
2022/11/05 14:37:19;;;;;;;11.60;7.40;;;;;;;;;;5044811;28;20210;-63
2022/11/05 14:39:45;;;;;;;10.15;6.95;;;;;;;;;;5044787;28;20212;-63
2022/11/05 14:42:15;;;;;;;11.48;6.63;;;;;;;;;;5045085;28;20221;-63
2022/11/05 14:44:55;;;;;;;9.07;5.20;;;;;;;;;;5044923;28;20201;-63
2022/11/05 14:47:23;;;;;;;8.82;5.57;;;;;;;;;;5045146;28;20428;-63
2022/11/05 14:49:51;;;;;;;9.77;6.53;;;;;;;;;;5044801;28;20219;-63
2022/11/05 14:52:19;;;;;;;7.10;6.25;;;;;;;;;;5044897;28;20277;-63
2022/11/05 14:54:48;;;;;;;8.27;5.70;;;;;;;;;;5044819;28;20198;-63
2022/11/05 14:57:15;;;;;;;10.55;5.63;;;;;;;;;;5044907;28;20397;-63
2022/11/05 15:00:00;;;;;;;5.75;5.10;;;;;;;;;;5044251;28;20208;-63
2022/11/05 15:02:31;;;;;;;5.65;5.20;;;;;;;;;;5044961;28;20403;-63
2022/11/05 15:05:18;;;;;;;6.18;5.57;;;;;;;;;;5044948;28;20474;-63
2022/11/05 15:07:45;;;;;;;7.65;5.70;;;;;;;;;;5019029;28;20200;-63
2022/11/05 15:10:13;;;;;;;6.95;5.85;;;;;;;;;;5044737;28;20387;-63
2022/11/05 15:12:42;;;;;;;8.75;6.88;;;;;;;;;;5044435;28;20205;-63
2022/11/05 15:15:17;;;;;;;7.20;5.80;;;;;;;;;;5044645;28;20240;-63
2022/11/05 15:17:47;;;;;;;8.30;6.25;;;;;;;;;;5044022;28;20213;-63
2022/11/05 15:20:15;;;;;;;7.13;5.93;;;;;;;;;;5044328;28;20288;-63
2022/11/05 15:22:43;;;;;;;11.68;7.13;;;;;;;;;;5044429;28;20210;-63
2022/11/05 15:25:17;;;;;;;7.60;6.10;;;;;;;;;;5044374;28;20198;-63
2022/11/05 15:27:49;;;;;;;5.85;5.30;;;;;;;;;;5044012;28;20217;-63
2022/11/05 15:30:16;;;;;;;7.13;5.72;;;;;;;;;;5044275;28;20198;-63